Agadir Al Massira, Morocco
Current Conditions -  °F | °C
As of 12:00 AM on Friday 28 Nov 2014 (Local Time) from GMAD Reporting Station
Moderate Rain Moderate Rain  
Wind Chill: 15°   Ceiling: Unl
Heat Index: 15°   Visibility: 5mi
Dew Point: 13°   Wind: 12mph
Humidity: 88%   Direction: 190°S
Pressure: 29.65"   Gusts: NA
Location:  30.33°N, 9.4°W
Report Text: GMAD 272300Z 19010KT 8000 RA SCT020 SCT100 15/13 Q1004 BECMG8000 RA
Loading
Personal Weather Stations






























Interactive Weather Map New forecast layout! Learn more

10-Day Weather Forecast

Advertisements
Track Severe Weather on mobile